sensor_id;sensor_type;location;lat;lon;timestamp;P1;durP1;ratioP1;P2;durP2;ratioP2
8675;SDS011;4375;52.486;13.424;2022-11-12T00:00:51;29.03;;;7.50;;
8675;SDS011;4375;52.486;13.424;2022-11-12T00:03:17;21.00;;;6.27;;
8675;SDS011;4375;52.486;13.424;2022-11-12T00:05:44;23.03;;;7.37;;
8675;SDS011;4375;52.486;13.424;2022-11-12T00:08:10;20.13;;;6.00;;
8675;SDS011;4375;52.486;13.424;2022-11-12T00:10:36;22.10;;;6.40;;
8675;SDS011;4375;52.486;13.424;2022-11-12T00:13:02;20.90;;;6.10;;
8675;SDS011;4375;52.486;13.424;2022-11-12T00:15:28;20.70;;;6.30;;
8675;SDS011;4375;52.486;13.424;2022-11-12T00:17:53;18.47;;;5.97;;
8675;SDS011;4375;52.486;13.424;2022-11-12T00:20:19;24.80;;;6.37;;
8675;SDS011;4375;52.486;13.424;2022-11-12T00:22:45;24.03;;;5.53;;
8675;SDS011;4375;52.486;13.424;2022-11-12T00:25:11;19.97;;;5.73;;
8675;SDS011;4375;52.486;13.424;2022-11-12T00:27:36;22.27;;;6.73;;
8675;SDS011;4375;52.486;13.424;2022-11-12T00:30:02;21.67;;;6.37;;
8675;SDS011;4375;52.486;13.424;2022-11-12T00:32:29;23.30;;;6.87;;
8675;SDS011;4375;52.486;13.424;2022-11-12T00:34:54;21.50;;;5.90;;
8675;SDS011;4375;52.486;13.424;2022-11-12T00:37:20;18.83;;;5.70;;
8675;SDS011;4375;52.486;13.424;2022-11-12T00:39:47;20.03;;;5.60;;
8675;SDS011;4375;52.486;13.424;2022-11-12T00:42:13;20.90;;;5.97;;
8675;SDS011;4375;52.486;13.424;2022-11-12T00:44:39;19.57;;;5.77;;
8675;SDS011;4375;52.486;13.424;2022-11-12T00:47:04;19.70;;;5.57;;
8675;SDS011;4375;52.486;13.424;2022-11-12T00:49:30;20.30;;;6.60;;
8675;SDS011;4375;52.486;13.424;2022-11-12T00:51:56;22.53;;;6.90;;
8675;SDS011;4375;52.486;13.424;2022-11-12T00:54:21;20.80;;;7.20;;
8675;SDS011;4375;52.486;13.424;2022-11-12T00:56:47;21.50;;;6.30;;
8675;SDS011;4375;52.486;13.424;2022-11-12T00:59:13;21.23;;;6.60;;
8675;SDS011;4375;52.486;13.424;2022-11-12T01:01:39;23.87;;;7.57;;
8675;SDS011;4375;52.486;13.424;2022-11-12T01:04:05;20.40;;;7.43;;
8675;SDS011;4375;52.486;13.424;2022-11-12T01:06:30;21.87;;;7.23;;
8675;SDS011;4375;52.486;13.424;2022-11-12T01:08:56;25.83;;;7.20;;
8675;SDS011;4375;52.486;13.424;2022-11-12T01:11:23;23.43;;;7.33;;
8675;SDS011;4375;52.486;13.424;2022-11-12T01:13:55;21.13;;;5.83;;
8675;SDS011;4375;52.486;13.424;2022-11-12T01:16:24;23.47;;;6.63;;
8675;SDS011;4375;52.486;13.424;2022-11-12T01:18:52;21.70;;;6.90;;
8675;SDS011;4375;52.486;13.424;2022-11-12T01:21:20;20.80;;;6.50;;
8675;SDS011;4375;52.486;13.424;2022-11-12T01:23:46;23.63;;;6.57;;
8675;SDS011;4375;52.486;13.424;2022-11-12T01:26:13;20.40;;;6.03;;
8675;SDS011;4375;52.486;13.424;2022-11-12T01:28:40;22.23;;;7.10;;
8675;SDS011;4375;52.486;13.424;2022-11-12T01:33:45;21.20;;;6.63;;
8675;SDS011;4375;52.486;13.424;2022-11-12T01:36:13;24.00;;;7.10;;
8675;SDS011;4375;52.486;13.424;2022-11-12T01:38:41;22.43;;;5.80;;
8675;SDS011;4375;52.486;13.424;2022-11-12T01:41:10;20.50;;;7.07;;
8675;SDS011;4375;52.486;13.424;2022-11-12T01:43:40;21.80;;;7.93;;
8675;SDS011;4375;52.486;13.424;2022-11-12T01:46:19;21.40;;;7.30;;
8675;SDS011;4375;52.486;13.424;2022-11-12T01:48:51;22.63;;;7.23;;
8675;SDS011;4375;52.486;13.424;2022-11-12T01:51:20;22.93;;;6.67;;
8675;SDS011;4375;52.486;13.424;2022-11-12T01:53:50;21.90;;;6.70;;
8675;SDS011;4375;52.486;13.424;2022-11-12T01:56:22;21.40;;;7.10;;
8675;SDS011;4375;52.486;13.424;2022-11-12T01:58:51;22.80;;;7.70;;
8675;SDS011;4375;52.486;13.424;2022-11-12T02:01:22;25.60;;;8.60;;
8675;SDS011;4375;52.486;13.424;2022-11-12T02:03:49;25.90;;;7.03;;
8675;SDS011;4375;52.486;13.424;2022-11-12T02:06:14;23.63;;;7.53;;
8675;SDS011;4375;52.486;13.424;2022-11-12T02:08:41;25.70;;;7.73;;
8675;SDS011;4375;52.486;13.424;2022-11-12T02:11:15;22.23;;;7.57;;
8675;SDS011;4375;52.486;13.424;2022-11-12T02:13:42;21.63;;;7.00;;
8675;SDS011;4375;52.486;13.424;2022-11-12T02:16:32;23.53;;;6.17;;
8675;SDS011;4375;52.486;13.424;2022-11-12T02:19:00;19.87;;;6.10;;
8675;SDS011;4375;52.486;13.424;2022-11-12T02:21:26;21.00;;;5.53;;
8675;SDS011;4375;52.486;13.424;2022-11-12T02:23:56;20.43;;;5.03;;
8675;SDS011;4375;52.486;13.424;2022-11-12T02:26:23;19.60;;;5.20;;
8675;SDS011;4375;52.486;13.424;2022-11-12T02:28:50;20.33;;;5.40;;
8675;SDS011;4375;52.486;13.424;2022-11-12T02:31:15;22.93;;;5.43;;
8675;SDS011;4375;52.486;13.424;2022-11-12T02:33:41;23.13;;;5.23;;
8675;SDS011;4375;52.486;13.424;2022-11-12T02:36:06;23.23;;;5.83;;
8675;SDS011;4375;52.486;13.424;2022-11-12T02:38:32;19.83;;;4.57;;
8675;SDS011;4375;52.486;13.424;2022-11-12T02:40:58;17.53;;;4.40;;
8675;SDS011;4375;52.486;13.424;2022-11-12T02:43:23;20.20;;;4.77;;
8675;SDS011;4375;52.486;13.424;2022-11-12T02:45:49;20.23;;;5.00;;
8675;SDS011;4375;52.486;13.424;2022-11-12T02:48:15;20.47;;;4.57;;
8675;SDS011;4375;52.486;13.424;2022-11-12T02:50:40;22.23;;;4.90;;
8675;SDS011;4375;52.486;13.424;2022-11-12T02:53:06;17.50;;;4.73;;
8675;SDS011;4375;52.486;13.424;2022-11-12T02:55:32;19.83;;;5.70;;
8675;SDS011;4375;52.486;13.424;2022-11-12T02:57:57;19.00;;;4.90;;
8675;SDS011;4375;52.486;13.424;2022-11-12T03:00:24;20.37;;;4.47;;
8675;SDS011;4375;52.486;13.424;2022-11-12T03:02:50;19.13;;;5.03;;
8675;SDS011;4375;52.486;13.424;2022-11-12T03:05:22;18.00;;;4.07;;
8675;SDS011;4375;52.486;13.424;2022-11-12T03:07:49;18.47;;;4.73;;
8675;SDS011;4375;52.486;13.424;2022-11-12T03:10:14;18.00;;;4.37;;
8675;SDS011;4375;52.486;13.424;2022-11-12T03:12:40;21.27;;;4.20;;
8675;SDS011;4375;52.486;13.424;2022-11-12T03:15:06;17.00;;;3.93;;
8675;SDS011;4375;52.486;13.424;2022-11-12T03:17:35;16.50;;;4.07;;
8675;SDS011;4375;52.486;13.424;2022-11-12T03:20:00;16.73;;;3.70;;
8675;SDS011;4375;52.486;13.424;2022-11-12T03:22:26;24.80;;;4.97;;
8675;SDS011;4375;52.486;13.424;2022-11-12T03:24:52;17.57;;;3.53;;
8675;SDS011;4375;52.486;13.424;2022-11-12T03:27:17;24.90;;;4.30;;
8675;SDS011;4375;52.486;13.424;2022-11-12T03:29:43;19.57;;;4.10;;
8675;SDS011;4375;52.486;13.424;2022-11-12T03:32:08;19.50;;;3.90;;
8675;SDS011;4375;52.486;13.424;2022-11-12T03:34:34;18.50;;;4.00;;
8675;SDS011;4375;52.486;13.424;2022-11-12T03:37:00;16.53;;;3.63;;
8675;SDS011;4375;52.486;13.424;2022-11-12T03:39:25;17.00;;;4.10;;
8675;SDS011;4375;52.486;13.424;2022-11-12T03:41:51;16.63;;;4.20;;
8675;SDS011;4375;52.486;13.424;2022-11-12T03:44:16;15.57;;;3.20;;
8675;SDS011;4375;52.486;13.424;2022-11-12T03:46:42;19.03;;;4.23;;
8675;SDS011;4375;52.486;13.424;2022-11-12T03:49:08;18.40;;;3.90;;
8675;SDS011;4375;52.486;13.424;2022-11-12T03:51:34;19.30;;;3.90;;
8675;SDS011;4375;52.486;13.424;2022-11-12T03:54:00;17.73;;;3.83;;
8675;SDS011;4375;52.486;13.424;2022-11-12T03:56:25;18.20;;;3.90;;
8675;SDS011;4375;52.486;13.424;2022-11-12T03:58:51;17.80;;;3.83;;
8675;SDS011;4375;52.486;13.424;2022-11-12T04:01:17;18.93;;;5.40;;
8675;SDS011;4375;52.486;13.424;2022-11-12T04:03:42;18.47;;;4.57;;
8675;SDS011;4375;52.486;13.424;2022-11-12T04:06:08;17.27;;;4.07;;
8675;SDS011;4375;52.486;13.424;2022-11-12T04:08:52;17.90;;;4.77;;
8675;SDS011;4375;52.486;13.424;2022-11-12T04:11:17;17.60;;;4.93;;
8675;SDS011;4375;52.486;13.424;2022-11-12T04:13:44;22.20;;;5.20;;
8675;SDS011;4375;52.486;13.424;2022-11-12T04:16:18;19.90;;;4.57;;
8675;SDS011;4375;52.486;13.424;2022-11-12T04:19:23;18.07;;;5.33;;
8675;SDS011;4375;52.486;13.424;2022-11-12T04:22:08;23.07;;;5.57;;
8675;SDS011;4375;52.486;13.424;2022-11-12T04:24:36;20.67;;;5.87;;
8675;SDS011;4375;52.486;13.424;2022-11-12T04:27:28;21.87;;;5.77;;
8675;SDS011;4375;52.486;13.424;2022-11-12T04:29:57;20.70;;;6.20;;
8675;SDS011;4375;52.486;13.424;2022-11-12T04:32:49;20.93;;;5.00;;
8675;SDS011;4375;52.486;13.424;2022-11-12T04:35:21;19.87;;;4.90;;
8675;SDS011;4375;52.486;13.424;2022-11-12T04:37:48;19.93;;;4.80;;
8675;SDS011;4375;52.486;13.424;2022-11-12T04:40:21;17.03;;;4.13;;
8675;SDS011;4375;52.486;13.424;2022-11-12T04:43:08;20.40;;;4.83;;
8675;SDS011;4375;52.486;13.424;2022-11-12T04:45:54;19.97;;;4.87;;
8675;SDS011;4375;52.486;13.424;2022-11-12T04:48:21;22.20;;;5.20;;
8675;SDS011;4375;52.486;13.424;2022-11-12T04:50:48;19.77;;;5.47;;
8675;SDS011;4375;52.486;13.424;2022-11-12T04:53:17;24.30;;;5.70;;
8675;SDS011;4375;52.486;13.424;2022-11-12T04:55:43;19.07;;;4.93;;
8675;SDS011;4375;52.486;13.424;2022-11-12T04:58:09;18.90;;;5.20;;
8675;SDS011;4375;52.486;13.424;2022-11-12T05:00:35;18.50;;;5.00;;
8675;SDS011;4375;52.486;13.424;2022-11-12T05:03:00;17.13;;;4.53;;
8675;SDS011;4375;52.486;13.424;2022-11-12T05:05:26;18.87;;;5.03;;
8675;SDS011;4375;52.486;13.424;2022-11-12T05:07:51;19.50;;;4.77;;
8675;SDS011;4375;52.486;13.424;2022-11-12T05:10:17;16.70;;;4.30;;
8675;SDS011;4375;52.486;13.424;2022-11-12T05:12:43;19.03;;;5.00;;
8675;SDS011;4375;52.486;13.424;2022-11-12T05:15:09;16.80;;;4.53;;
8675;SDS011;4375;52.486;13.424;2022-11-12T05:17:36;16.37;;;4.10;;
8675;SDS011;4375;52.486;13.424;2022-11-12T05:20:06;16.43;;;4.43;;
8675;SDS011;4375;52.486;13.424;2022-11-12T05:22:32;20.30;;;5.70;;
8675;SDS011;4375;52.486;13.424;2022-11-12T05:24:58;21.80;;;4.97;;
8675;SDS011;4375;52.486;13.424;2022-11-12T05:27:23;18.83;;;5.03;;
8675;SDS011;4375;52.486;13.424;2022-11-12T05:29:49;20.63;;;4.70;;
8675;SDS011;4375;52.486;13.424;2022-11-12T05:32:15;20.67;;;5.10;;
8675;SDS011;4375;52.486;13.424;2022-11-12T05:34:42;20.57;;;5.10;;
8675;SDS011;4375;52.486;13.424;2022-11-12T05:37:08;20.40;;;5.10;;
8675;SDS011;4375;52.486;13.424;2022-11-12T05:39:35;19.30;;;5.00;;
8675;SDS011;4375;52.486;13.424;2022-11-12T05:42:01;19.00;;;5.10;;
8675;SDS011;4375;52.486;13.424;2022-11-12T05:44:27;20.47;;;5.47;;
8675;SDS011;4375;52.486;13.424;2022-11-12T05:46:52;19.47;;;5.20;;
8675;SDS011;4375;52.486;13.424;2022-11-12T05:49:18;18.70;;;5.20;;
8675;SDS011;4375;52.486;13.424;2022-11-12T05:51:44;18.30;;;4.33;;
8675;SDS011;4375;52.486;13.424;2022-11-12T05:54:10;19.40;;;4.90;;
8675;SDS011;4375;52.486;13.424;2022-11-12T05:56:36;22.43;;;4.30;;
8675;SDS011;4375;52.486;13.424;2022-11-12T05:59:02;23.60;;;5.00;;
8675;SDS011;4375;52.486;13.424;2022-11-12T06:01:30;18.00;;;4.97;;
8675;SDS011;4375;52.486;13.424;2022-11-12T06:03:56;19.33;;;4.30;;
8675;SDS011;4375;52.486;13.424;2022-11-12T06:06:22;17.90;;;4.90;;
8675;SDS011;4375;52.486;13.424;2022-11-12T06:08:48;18.60;;;4.73;;
8675;SDS011;4375;52.486;13.424;2022-11-12T06:11:14;20.20;;;4.90;;
8675;SDS011;4375;52.486;13.424;2022-11-12T06:13:40;17.57;;;4.87;;
8675;SDS011;4375;52.486;13.424;2022-11-12T06:16:06;21.30;;;5.23;;
8675;SDS011;4375;52.486;13.424;2022-11-12T06:18:32;18.00;;;5.23;;
8675;SDS011;4375;52.486;13.424;2022-11-12T06:21:01;17.83;;;5.30;;
8675;SDS011;4375;52.486;13.424;2022-11-12T06:23:44;17.50;;;4.70;;
8675;SDS011;4375;52.486;13.424;2022-11-12T06:26:10;18.93;;;4.40;;
8675;SDS011;4375;52.486;13.424;2022-11-12T06:28:36;20.87;;;4.77;;
8675;SDS011;4375;52.486;13.424;2022-11-12T06:31:02;23.67;;;5.23;;
8675;SDS011;4375;52.486;13.424;2022-11-12T06:33:27;19.30;;;5.13;;
8675;SDS011;4375;52.486;13.424;2022-11-12T06:36:00;19.87;;;4.90;;
8675;SDS011;4375;52.486;13.424;2022-11-12T06:38:28;18.33;;;4.90;;
8675;SDS011;4375;52.486;13.424;2022-11-12T06:40:55;19.53;;;5.10;;
8675;SDS011;4375;52.486;13.424;2022-11-12T06:43:21;23.10;;;5.20;;
8675;SDS011;4375;52.486;13.424;2022-11-12T06:45:47;22.60;;;5.33;;
8675;SDS011;4375;52.486;13.424;2022-11-12T06:48:12;18.37;;;4.70;;
8675;SDS011;4375;52.486;13.424;2022-11-12T06:50:38;21.50;;;5.03;;
8675;SDS011;4375;52.486;13.424;2022-11-12T06:53:04;20.00;;;4.77;;
8675;SDS011;4375;52.486;13.424;2022-11-12T06:55:29;20.30;;;5.07;;
8675;SDS011;4375;52.486;13.424;2022-11-12T06:57:55;18.50;;;4.80;;
8675;SDS011;4375;52.486;13.424;2022-11-12T07:00:21;18.53;;;5.20;;
8675;SDS011;4375;52.486;13.424;2022-11-12T07:02:47;17.70;;;5.60;;
8675;SDS011;4375;52.486;13.424;2022-11-12T07:05:12;20.67;;;5.60;;
8675;SDS011;4375;52.486;13.424;2022-11-12T07:07:38;18.10;;;5.20;;
8675;SDS011;4375;52.486;13.424;2022-11-12T07:10:04;18.27;;;5.27;;
8675;SDS011;4375;52.486;13.424;2022-11-12T07:12:30;20.03;;;5.97;;
8675;SDS011;4375;52.486;13.424;2022-11-12T07:14:56;20.90;;;5.80;;
8675;SDS011;4375;52.486;13.424;2022-11-12T07:17:21;19.90;;;5.70;;
8675;SDS011;4375;52.486;13.424;2022-11-12T07:19:47;20.33;;;5.50;;
8675;SDS011;4375;52.486;13.424;2022-11-12T07:22:13;23.93;;;6.30;;
8675;SDS011;4375;52.486;13.424;2022-11-12T07:24:38;23.93;;;5.23;;
8675;SDS011;4375;52.486;13.424;2022-11-12T07:27:04;20.63;;;5.50;;
8675;SDS011;4375;52.486;13.424;2022-11-12T07:29:29;21.23;;;5.43;;
8675;SDS011;4375;52.486;13.424;2022-11-12T07:31:55;20.00;;;5.80;;
8675;SDS011;4375;52.486;13.424;2022-11-12T07:34:21;20.10;;;5.83;;
8675;SDS011;4375;52.486;13.424;2022-11-12T07:36:46;20.10;;;5.23;;
8675;SDS011;4375;52.486;13.424;2022-11-12T07:39:15;20.67;;;5.90;;
8675;SDS011;4375;52.486;13.424;2022-11-12T07:41:41;22.37;;;5.70;;
8675;SDS011;4375;52.486;13.424;2022-11-12T07:44:07;22.70;;;6.03;;
8675;SDS011;4375;52.486;13.424;2022-11-12T07:46:33;17.37;;;5.30;;
8675;SDS011;4375;52.486;13.424;2022-11-12T07:48:59;21.20;;;5.63;;
8675;SDS011;4375;52.486;13.424;2022-11-12T07:51:25;20.30;;;6.00;;
8675;SDS011;4375;52.486;13.424;2022-11-12T07:53:52;21.20;;;5.23;;
8675;SDS011;4375;52.486;13.424;2022-11-12T07:56:20;21.73;;;6.70;;
8675;SDS011;4375;52.486;13.424;2022-11-12T07:58:47;20.40;;;5.90;;
8675;SDS011;4375;52.486;13.424;2022-11-12T08:03:42;20.10;;;5.80;;
8675;SDS011;4375;52.486;13.424;2022-11-12T08:06:08;21.23;;;7.10;;
8675;SDS011;4375;52.486;13.424;2022-11-12T08:08:33;20.87;;;5.60;;
8675;SDS011;4375;52.486;13.424;2022-11-12T08:10:59;22.80;;;6.37;;
8675;SDS011;4375;52.486;13.424;2022-11-12T08:13:25;20.37;;;5.60;;
8675;SDS011;4375;52.486;13.424;2022-11-12T08:15:50;19.10;;;5.33;;
8675;SDS011;4375;52.486;13.424;2022-11-12T08:18:16;19.27;;;5.60;;
8675;SDS011;4375;52.486;13.424;2022-11-12T08:20:42;20.27;;;5.80;;
8675;SDS011;4375;52.486;13.424;2022-11-12T08:23:08;19.20;;;5.70;;
8675;SDS011;4375;52.486;13.424;2022-11-12T08:25:34;20.00;;;5.10;;
8675;SDS011;4375;52.486;13.424;2022-11-12T08:28:00;19.30;;;5.50;;
8675;SDS011;4375;52.486;13.424;2022-11-12T08:30:26;21.50;;;5.50;;
8675;SDS011;4375;52.486;13.424;2022-11-12T08:33:03;19.63;;;5.50;;
8675;SDS011;4375;52.486;13.424;2022-11-12T08:35:30;21.30;;;6.60;;
8675;SDS011;4375;52.486;13.424;2022-11-12T08:37:57;19.97;;;5.67;;
8675;SDS011;4375;52.486;13.424;2022-11-12T08:40:25;24.10;;;6.40;;
8675;SDS011;4375;52.486;13.424;2022-11-12T08:43:09;27.17;;;7.60;;
8675;SDS011;4375;52.486;13.424;2022-11-12T08:45:36;26.63;;;6.80;;
8675;SDS011;4375;52.486;13.424;2022-11-12T08:48:07;25.03;;;8.30;;
8675;SDS011;4375;52.486;13.424;2022-11-12T08:50:35;22.77;;;5.80;;
8675;SDS011;4375;52.486;13.424;2022-11-12T08:53:02;19.40;;;5.70;;
8675;SDS011;4375;52.486;13.424;2022-11-12T08:55:29;18.93;;;5.53;;
8675;SDS011;4375;52.486;13.424;2022-11-12T08:57:57;21.07;;;6.27;;
8675;SDS011;4375;52.486;13.424;2022-11-12T09:00:26;23.70;;;6.90;;
8675;SDS011;4375;52.486;13.424;2022-11-12T09:02:52;23.70;;;6.50;;
8675;SDS011;4375;52.486;13.424;2022-11-12T09:05:18;20.40;;;6.10;;
8675;SDS011;4375;52.486;13.424;2022-11-12T09:07:44;21.40;;;6.70;;
8675;SDS011;4375;52.486;13.424;2022-11-12T09:10:09;23.80;;;7.87;;
8675;SDS011;4375;52.486;13.424;2022-11-12T09:12:35;29.17;;;7.57;;
8675;SDS011;4375;52.486;13.424;2022-11-12T09:15:00;23.63;;;8.80;;
8675;SDS011;4375;52.486;13.424;2022-11-12T09:17:26;27.10;;;7.27;;
8675;SDS011;4375;52.486;13.424;2022-11-12T09:19:53;23.30;;;6.70;;
8675;SDS011;4375;52.486;13.424;2022-11-12T09:22:18;25.40;;;7.60;;
8675;SDS011;4375;52.486;13.424;2022-11-12T09:24:44;24.10;;;7.70;;
8675;SDS011;4375;52.486;13.424;2022-11-12T09:27:10;28.40;;;8.33;;
8675;SDS011;4375;52.486;13.424;2022-11-12T09:29:35;27.40;;;8.50;;
8675;SDS011;4375;52.486;13.424;2022-11-12T09:32:01;29.37;;;9.73;;
8675;SDS011;4375;52.486;13.424;2022-11-12T09:34:26;30.27;;;10.00;;
8675;SDS011;4375;52.486;13.424;2022-11-12T09:36:53;32.23;;;10.67;;
8675;SDS011;4375;52.486;13.424;2022-11-12T09:39:19;29.87;;;10.90;;
8675;SDS011;4375;52.486;13.424;2022-11-12T09:41:45;30.60;;;11.20;;
8675;SDS011;4375;52.486;13.424;2022-11-12T09:44:17;31.90;;;11.70;;
8675;SDS011;4375;52.486;13.424;2022-11-12T09:47:02;30.10;;;10.70;;
8675;SDS011;4375;52.486;13.424;2022-11-12T09:49:47;43.10;;;11.00;;
8675;SDS011;4375;52.486;13.424;2022-11-12T09:52:20;29.37;;;10.33;;
8675;SDS011;4375;52.486;13.424;2022-11-12T09:54:56;33.27;;;10.30;;
8675;SDS011;4375;52.486;13.424;2022-11-12T09:57:42;27.87;;;9.53;;
8675;SDS011;4375;52.486;13.424;2022-11-12T10:00:18;27.60;;;10.40;;
8675;SDS011;4375;52.486;13.424;2022-11-12T10:05:41;29.10;;;10.20;;
8675;SDS011;4375;52.486;13.424;2022-11-12T10:11:01;31.23;;;9.60;;
8675;SDS011;4375;52.486;13.424;2022-11-12T10:19:29;29.70;;;9.67;;
8675;SDS011;4375;52.486;13.424;2022-11-12T10:22:44;28.70;;;9.57;;
8675;SDS011;4375;52.486;13.424;2022-11-12T10:25:35;30.37;;;9.90;;
8675;SDS011;4375;52.486;13.424;2022-11-12T10:30:46;28.50;;;9.70;;
8675;SDS011;4375;52.486;13.424;2022-11-12T10:33:15;34.40;;;10.03;;
8675;SDS011;4375;52.486;13.424;2022-11-12T10:35:40;27.00;;;9.97;;
8675;SDS011;4375;52.486;13.424;2022-11-12T10:38:10;26.83;;;9.03;;
8675;SDS011;4375;52.486;13.424;2022-11-12T10:40:39;31.90;;;9.87;;
8675;SDS011;4375;52.486;13.424;2022-11-12T10:45:41;26.37;;;9.10;;
8675;SDS011;4375;52.486;13.424;2022-11-12T10:48:24;24.70;;;9.17;;
8675;SDS011;4375;52.486;13.424;2022-11-12T10:50:58;25.70;;;9.70;;
8675;SDS011;4375;52.486;13.424;2022-11-12T10:53:34;26.33;;;8.40;;
8675;SDS011;4375;52.486;13.424;2022-11-12T10:56:02;28.30;;;10.40;;
8675;SDS011;4375;52.486;13.424;2022-11-12T10:58:29;31.17;;;11.23;;
8675;SDS011;4375;52.486;13.424;2022-11-12T11:03:33;30.50;;;10.77;;
8675;SDS011;4375;52.486;13.424;2022-11-12T11:13:41;24.67;;;9.13;;
8675;SDS011;4375;52.486;13.424;2022-11-12T11:16:09;24.57;;;8.17;;
8675;SDS011;4375;52.486;13.424;2022-11-12T11:18:38;26.70;;;8.60;;
8675;SDS011;4375;52.486;13.424;2022-11-12T11:32:33;23.53;;;8.00;;
8675;SDS011;4375;52.486;13.424;2022-11-12T11:37:46;26.50;;;8.70;;
8675;SDS011;4375;52.486;13.424;2022-11-12T11:40:39;25.17;;;9.20;;
8675;SDS011;4375;52.486;13.424;2022-11-12T11:56:43;26.50;;;7.80;;
8675;SDS011;4375;52.486;13.424;2022-11-12T12:04:47;28.27;;;8.23;;
8675;SDS011;4375;52.486;13.424;2022-11-12T12:20:57;22.50;;;6.63;;
8675;SDS011;4375;52.486;13.424;2022-11-12T12:25:50;19.17;;;6.00;;
8675;SDS011;4375;52.486;13.424;2022-11-12T12:31:08;27.37;;;7.27;;
8675;SDS011;4375;52.486;13.424;2022-11-12T12:33:42;22.20;;;6.83;;
8675;SDS011;4375;52.486;13.424;2022-11-12T12:36:14;25.17;;;7.43;;
8675;SDS011;4375;52.486;13.424;2022-11-12T12:38:48;22.50;;;6.77;;
8675;SDS011;4375;52.486;13.424;2022-11-12T12:41:20;24.93;;;6.73;;
8675;SDS011;4375;52.486;13.424;2022-11-12T12:43:53;25.30;;;7.00;;
8675;SDS011;4375;52.486;13.424;2022-11-12T12:46:24;23.63;;;7.70;;
8675;SDS011;4375;52.486;13.424;2022-11-12T12:48:53;23.90;;;6.10;;
8675;SDS011;4375;52.486;13.424;2022-11-12T12:51:20;27.70;;;7.17;;
8675;SDS011;4375;52.486;13.424;2022-11-12T12:53:46;28.43;;;7.60;;
8675;SDS011;4375;52.486;13.424;2022-11-12T13:03:53;25.17;;;6.90;;
8675;SDS011;4375;52.486;13.424;2022-11-12T13:09:19;23.87;;;7.50;;
8675;SDS011;4375;52.486;13.424;2022-11-12T13:11:51;29.80;;;7.40;;
8675;SDS011;4375;52.486;13.424;2022-11-12T13:17:00;28.33;;;7.60;;
8675;SDS011;4375;52.486;13.424;2022-11-12T13:19:26;22.40;;;7.07;;
8675;SDS011;4375;52.486;13.424;2022-11-12T13:30:07;27.60;;;8.40;;
8675;SDS011;4375;52.486;13.424;2022-11-12T13:35:19;29.00;;;9.60;;
8675;SDS011;4375;52.486;13.424;2022-11-12T13:43:41;37.30;;;11.13;;
8675;SDS011;4375;52.486;13.424;2022-11-12T13:49:05;25.57;;;9.13;;
8675;SDS011;4375;52.486;13.424;2022-11-12T13:54:23;28.53;;;9.73;;
8675;SDS011;4375;52.486;13.424;2022-11-12T13:56:55;21.20;;;6.23;;
8675;SDS011;4375;52.486;13.424;2022-11-12T13:59:22;23.50;;;8.33;;
8675;SDS011;4375;52.486;13.424;2022-11-12T14:01:49;22.57;;;7.70;;
8675;SDS011;4375;52.486;13.424;2022-11-12T14:04:17;26.30;;;8.93;;
8675;SDS011;4375;52.486;13.424;2022-11-12T14:06:49;29.30;;;8.30;;
8675;SDS011;4375;52.486;13.424;2022-11-12T14:12:01;28.20;;;8.17;;
8675;SDS011;4375;52.486;13.424;2022-11-12T14:19:47;24.60;;;6.77;;
8675;SDS011;4375;52.486;13.424;2022-11-12T14:22:19;22.83;;;6.77;;
8675;SDS011;4375;52.486;13.424;2022-11-12T14:24:46;27.13;;;6.60;;
8675;SDS011;4375;52.486;13.424;2022-11-12T14:30:11;27.80;;;6.50;;
8675;SDS011;4375;52.486;13.424;2022-11-12T14:32:46;21.47;;;5.60;;
8675;SDS011;4375;52.486;13.424;2022-11-12T14:37:58;25.90;;;6.70;;
8675;SDS011;4375;52.486;13.424;2022-11-12T14:40:34;26.73;;;6.97;;
8675;SDS011;4375;52.486;13.424;2022-11-12T14:43:02;22.23;;;6.70;;
8675;SDS011;4375;52.486;13.424;2022-11-12T14:45:29;26.20;;;7.37;;
8675;SDS011;4375;52.486;13.424;2022-11-12T14:47:55;28.50;;;7.70;;
8675;SDS011;4375;52.486;13.424;2022-11-12T14:50:29;31.80;;;10.77;;
8675;SDS011;4375;52.486;13.424;2022-11-12T14:53:01;28.70;;;8.73;;
8675;SDS011;4375;52.486;13.424;2022-11-12T14:55:32;30.37;;;9.27;;
8675;SDS011;4375;52.486;13.424;2022-11-12T14:57:59;33.10;;;11.07;;
8675;SDS011;4375;52.486;13.424;2022-11-12T15:02:55;31.90;;;9.47;;
8675;SDS011;4375;52.486;13.424;2022-11-12T15:05:21;29.33;;;9.40;;
8675;SDS011;4375;52.486;13.424;2022-11-12T15:13:13;28.00;;;9.43;;
8675;SDS011;4375;52.486;13.424;2022-11-12T15:15:53;31.70;;;9.90;;
8675;SDS011;4375;52.486;13.424;2022-11-12T15:18:28;35.93;;;10.80;;
8675;SDS011;4375;52.486;13.424;2022-11-12T15:23:34;31.43;;;10.60;;
8675;SDS011;4375;52.486;13.424;2022-11-12T15:26:00;37.20;;;10.83;;
8675;SDS011;4375;52.486;13.424;2022-11-12T15:28:26;32.00;;;11.97;;
8675;SDS011;4375;52.486;13.424;2022-11-12T15:31:05;33.73;;;11.90;;
8675;SDS011;4375;52.486;13.424;2022-11-12T15:33:33;32.87;;;12.77;;
8675;SDS011;4375;52.486;13.424;2022-11-12T15:35:59;36.17;;;13.53;;
8675;SDS011;4375;52.486;13.424;2022-11-12T15:38:30;33.70;;;13.07;;
8675;SDS011;4375;52.486;13.424;2022-11-12T15:41:02;34.57;;;12.00;;
8675;SDS011;4375;52.486;13.424;2022-11-12T15:43:34;33.60;;;13.07;;
8675;SDS011;4375;52.486;13.424;2022-11-12T15:46:00;34.17;;;13.47;;
8675;SDS011;4375;52.486;13.424;2022-11-12T15:48:26;36.43;;;11.80;;
8675;SDS011;4375;52.486;13.424;2022-11-12T15:50:52;33.03;;;12.23;;
8675;SDS011;4375;52.486;13.424;2022-11-12T15:53:19;32.27;;;12.73;;
8675;SDS011;4375;52.486;13.424;2022-11-12T15:55:45;31.87;;;11.60;;
8675;SDS011;4375;52.486;13.424;2022-11-12T15:58:15;32.77;;;12.90;;
8675;SDS011;4375;52.486;13.424;2022-11-12T16:00:44;35.57;;;12.17;;
8675;SDS011;4375;52.486;13.424;2022-11-12T16:05:46;36.03;;;12.37;;
8675;SDS011;4375;52.486;13.424;2022-11-12T16:08:12;32.20;;;11.70;;
8675;SDS011;4375;52.486;13.424;2022-11-12T16:10:38;36.20;;;13.80;;
8675;SDS011;4375;52.486;13.424;2022-11-12T16:13:10;34.80;;;12.77;;
8675;SDS011;4375;52.486;13.424;2022-11-12T16:15:40;33.43;;;13.20;;
8675;SDS011;4375;52.486;13.424;2022-11-12T16:18:08;32.97;;;13.23;;
8675;SDS011;4375;52.486;13.424;2022-11-12T16:20:35;34.30;;;13.53;;
8675;SDS011;4375;52.486;13.424;2022-11-12T16:23:01;34.00;;;14.50;;
8675;SDS011;4375;52.486;13.424;2022-11-12T16:25:28;34.93;;;13.47;;
8675;SDS011;4375;52.486;13.424;2022-11-12T16:27:55;35.97;;;13.90;;
8675;SDS011;4375;52.486;13.424;2022-11-12T16:30:25;37.90;;;14.63;;
8675;SDS011;4375;52.486;13.424;2022-11-12T16:32:55;39.00;;;13.90;;
8675;SDS011;4375;52.486;13.424;2022-11-12T16:35:21;35.73;;;14.17;;
8675;SDS011;4375;52.486;13.424;2022-11-12T16:37:47;35.60;;;13.03;;
8675;SDS011;4375;52.486;13.424;2022-11-12T16:40:23;42.50;;;14.73;;
8675;SDS011;4375;52.486;13.424;2022-11-12T16:42:51;37.77;;;15.77;;
8675;SDS011;4375;52.486;13.424;2022-11-12T16:45:18;41.53;;;16.17;;
8675;SDS011;4375;52.486;13.424;2022-11-12T16:47:49;39.20;;;15.20;;
8675;SDS011;4375;52.486;13.424;2022-11-12T16:50:17;33.77;;;15.30;;
8675;SDS011;4375;52.486;13.424;2022-11-12T16:52:47;42.50;;;15.93;;
8675;SDS011;4375;52.486;13.424;2022-11-12T16:55:13;39.37;;;16.03;;
8675;SDS011;4375;52.486;13.424;2022-11-12T16:57:40;39.90;;;16.23;;
8675;SDS011;4375;52.486;13.424;2022-11-12T17:00:09;41.03;;;16.40;;
8675;SDS011;4375;52.486;13.424;2022-11-12T17:02:38;38.13;;;15.73;;
8675;SDS011;4375;52.486;13.424;2022-11-12T17:05:05;43.23;;;17.53;;
8675;SDS011;4375;52.486;13.424;2022-11-12T17:07:34;42.53;;;16.87;;
8675;SDS011;4375;52.486;13.424;2022-11-12T17:09:59;42.30;;;16.73;;
8675;SDS011;4375;52.486;13.424;2022-11-12T17:12:25;44.67;;;18.43;;
8675;SDS011;4375;52.486;13.424;2022-11-12T17:14:51;37.93;;;17.30;;
8675;SDS011;4375;52.486;13.424;2022-11-12T17:17:16;37.70;;;16.50;;
8675;SDS011;4375;52.486;13.424;2022-11-12T17:19:42;45.47;;;19.40;;